Impacts METAR Board INFO
IDs:

KCLT - Charlotte/Douglas In, NC, US

Updated at: 0903 UTC 21 Jan 2018
Potential Impact None Slight Moderate High
Time20/21Z 20/22Z 20/23Z 21/00Z 21/01Z 21/02Z 21/03Z 21/04Z 21/05Z 21/06Z 21/07Z 21/08Z 21/09Z
VIS10 10 10 10 10 10 10 10 10 10 10 10 10
CIG-- -- -- -- -- -- -- -- -- -- -- -- --
CoverFEWFEWSCTSCTFEWFEWFEWFEWFEWFEWCLRCLRCLR
FltCatVFRVFRVFRVFRVFRVFRVFRVFRVFRVFRVFRVFRVFR
WX--------------------------
WDir190200160170020000001700130
WSpd8 7 3 6 0 6 0 0 0 0 3 0 3
WGst-- -- -- -- -- -- -- -- -- -- -- -- --
Raw hourly METARs
KCLT 202052Z 19008KT 10SM FEW250 15/00 A3015 RMK AO2 SLP212 T01500000 55006
KCLT 202152Z 20007KT 10SM FEW250 14/M01 A3017 RMK AO2 SLP218 T01441006
KCLT 202252Z 16003KT 10SM SCT250 12/M01 A3017 RMK AO2 SLP220 T01171006
KCLT 202352Z 17006KT 10SM SCT250 11/M01 A3018 RMK AO2 SLP224 T01111006 10156 20111 51010
KCLT 210052Z 00000KT 10SM FEW250 09/M01 A3021 RMK AO2 SLP232 T00891006
KCLT 210152Z 20006KT 10SM FEW250 08/01 A3022 RMK AO2 SLP235 T00830006
KCLT 210252Z 00000KT 10SM FEW250 07/01 A3022 RMK AO2 SLP236 T00720006 51012
KCLT 210352Z 00000KT 10SM FEW250 07/01 A3022 RMK AO2 SLP235 T00720011
KCLT 210452Z 00000KT 10SM FEW250 07/01 A3022 RMK AO2 SLP232 T00720006 401561044
KCLT 210552Z 00000KT 10SM FEW250 07/01 A3021 RMK AO2 SLP229 T00670006 10111 20050 58004
KCLT 210652Z 17003KT 10SM CLR 05/00 A3020 RMK AO2 SLP227 T00500000
KCLT 210752Z 00000KT 10SM CLR 06/01 A3019 RMK AO2 SLP223 T00560006
KCLT 210852Z 13003KT 10SM CLR 02/M01 A3021 RMK AO2 SLP229 T00171006 55001